Austinville, Pennsylvania
Current Conditions -  °F | °C
As of 2:53 PM on Thursday 23 Oct 2014 (Local Time) from KELM Reporting Station
Overcast Overcast  
Wind Chill: 54°   Ceiling: 2500
Heat Index: 54°   Visibility: 10mi
Dew Point: 44°   Wind: 10mph
Humidity: 69%   Direction: 30°NNE
Pressure: 29.93"   Gusts: 31mph
Location:  41.8495°N, 76.7925°W
Report Text: KELM 231853Z AUTO 03009G27KT 10SM OVC025 12/07 A2993 RMK AO2 PK WND 01027/1844 SLP136 T01220067
Loading
Personal Weather Stations






























Interactive Weather Map
Tropical Storm Tracking
New forecast layout! Learn more

10-Day Weather Forecast

Advertisements
Track Severe Weather on mobile